sensor_id;sensor_type;location;lat;lon;timestamp;pressure;altitude;pressure_sealevel;temperature;humidity
163;BME280;3946;48.958;8.284;2023-04-16T00:02:15;100581.88;;;8.92;100.00
163;BME280;3946;48.958;8.284;2023-04-16T00:05:00;100583.63;;;8.91;100.00
163;BME280;3946;48.958;8.284;2023-04-16T00:07:46;100582.44;;;8.97;100.00
163;BME280;3946;48.958;8.284;2023-04-16T00:10:34;100575.59;;;8.96;100.00
163;BME280;3946;48.958;8.284;2023-04-16T00:13:19;100584.53;;;9.06;100.00
163;BME280;3946;48.958;8.284;2023-04-16T00:16:05;100583.72;;;9.05;100.00
163;BME280;3946;48.958;8.284;2023-04-16T00:18:52;100585.31;;;9.08;100.00
163;BME280;3946;48.958;8.284;2023-04-16T00:21:36;100586.84;;;8.95;100.00
163;BME280;3946;48.958;8.284;2023-04-16T00:24:23;100586.28;;;8.90;100.00
163;BME280;3946;48.958;8.284;2023-04-16T00:27:08;100584.44;;;8.92;100.00
163;BME280;3946;48.958;8.284;2023-04-16T00:29:53;100587.03;;;8.92;100.00
163;BME280;3946;48.958;8.284;2023-04-16T00:32:38;100584.44;;;8.92;100.00
163;BME280;3946;48.958;8.284;2023-04-16T00:35:23;100590.03;;;9.00;100.00
163;BME280;3946;48.958;8.284;2023-04-16T00:38:08;100593.88;;;8.93;100.00
163;BME280;3946;48.958;8.284;2023-04-16T00:40:54;100597.44;;;8.90;100.00
163;BME280;3946;48.958;8.284;2023-04-16T00:43:41;100588.94;;;8.88;100.00
163;BME280;3946;48.958;8.284;2023-04-16T00:46:26;100595.19;;;8.84;100.00
163;BME280;3946;48.958;8.284;2023-04-16T00:49:11;100598.34;;;8.89;100.00
163;BME280;3946;48.958;8.284;2023-04-16T00:51:56;100596.00;;;8.85;100.00
163;BME280;3946;48.958;8.284;2023-04-16T00:54:41;100594.94;;;8.89;100.00
163;BME280;3946;48.958;8.284;2023-04-16T00:57:28;100588.34;;;8.99;100.00
163;BME280;3946;48.958;8.284;2023-04-16T01:00:13;100596.84;;;8.85;100.00
163;BME280;3946;48.958;8.284;2023-04-16T01:02:58;100594.03;;;8.90;100.00
163;BME280;3946;48.958;8.284;2023-04-16T01:05:43;100594.69;;;8.93;100.00
163;BME280;3946;48.958;8.284;2023-04-16T01:08:32;100592.28;;;8.90;100.00
163;BME280;3946;48.958;8.284;2023-04-16T01:11:17;100594.78;;;8.92;100.00
163;BME280;3946;48.958;8.284;2023-04-16T01:14:03;100594.19;;;8.87;100.00
163;BME280;3946;48.958;8.284;2023-04-16T01:16:48;100593.88;;;8.93;100.00
163;BME280;3946;48.958;8.284;2023-04-16T01:19:33;100599.69;;;8.96;100.00
163;BME280;3946;48.958;8.284;2023-04-16T01:22:21;100597.25;;;8.93;100.00
163;BME280;3946;48.958;8.284;2023-04-16T01:25:06;100596.78;;;8.87;100.00
163;BME280;3946;48.958;8.284;2023-04-16T01:27:52;100600.25;;;8.86;100.00
163;BME280;3946;48.958;8.284;2023-04-16T01:30:37;100601.78;;;8.90;100.00
163;BME280;3946;48.958;8.284;2023-04-16T01:33:34;100599.84;;;8.93;100.00
163;BME280;3946;48.958;8.284;2023-04-16T01:36:19;100606.22;;;9.03;100.00
163;BME280;3946;48.958;8.284;2023-04-16T01:39:05;100607.44;;;8.96;100.00
163;BME280;3946;48.958;8.284;2023-04-16T01:41:52;100612.53;;;8.98;100.00
163;BME280;3946;48.958;8.284;2023-04-16T01:44:37;100607.59;;;8.93;100.00
163;BME280;3946;48.958;8.284;2023-04-16T01:47:22;100608.94;;;8.85;100.00
163;BME280;3946;48.958;8.284;2023-04-16T01:50:07;100605.84;;;8.94;100.00
163;BME280;3946;48.958;8.284;2023-04-16T01:52:53;100605.13;;;8.92;100.00
163;BME280;3946;48.958;8.284;2023-04-16T01:55:39;100603.84;;;8.83;100.00
163;BME280;3946;48.958;8.284;2023-04-16T01:58:26;100608.00;;;8.86;100.00
163;BME280;3946;48.958;8.284;2023-04-16T02:01:12;100610.69;;;8.84;100.00
163;BME280;3946;48.958;8.284;2023-04-16T02:03:57;100611.00;;;8.94;100.00
163;BME280;3946;48.958;8.284;2023-04-16T02:06:43;100616.91;;;8.80;100.00
163;BME280;3946;48.958;8.284;2023-04-16T02:09:32;100612.88;;;8.92;100.00
163;BME280;3946;48.958;8.284;2023-04-16T02:12:19;100606.41;;;8.83;100.00
163;BME280;3946;48.958;8.284;2023-04-16T02:15:06;100604.53;;;8.87;100.00
163;BME280;3946;48.958;8.284;2023-04-16T02:17:52;100604.09;;;8.94;100.00
163;BME280;3946;48.958;8.284;2023-04-16T02:20:40;100608.34;;;8.95;100.00
163;BME280;3946;48.958;8.284;2023-04-16T02:23:26;100610.38;;;8.90;100.00
163;BME280;3946;48.958;8.284;2023-04-16T02:26:13;100614.59;;;8.75;100.00
163;BME280;3946;48.958;8.284;2023-04-16T02:29:01;100616.91;;;8.80;100.00
163;BME280;3946;48.958;8.284;2023-04-16T02:31:55;100614.25;;;8.82;100.00
163;BME280;3946;48.958;8.284;2023-04-16T02:34:41;100613.72;;;8.92;100.00
163;BME280;3946;48.958;8.284;2023-04-16T02:37:26;100617.91;;;8.77;100.00
163;BME280;3946;48.958;8.284;2023-04-16T02:40:11;100620.06;;;8.69;100.00
163;BME280;3946;48.958;8.284;2023-04-16T02:42:56;100623.59;;;8.84;100.00
163;BME280;3946;48.958;8.284;2023-04-16T02:45:43;100623.66;;;8.83;100.00
163;BME280;3946;48.958;8.284;2023-04-16T02:48:28;100619.94;;;8.88;100.00
163;BME280;3946;48.958;8.284;2023-04-16T02:51:13;100630.28;;;8.88;100.00
163;BME280;3946;48.958;8.284;2023-04-16T02:53:58;100626.09;;;8.86;100.00
163;BME280;3946;48.958;8.284;2023-04-16T02:56:43;100627.94;;;8.84;100.00
163;BME280;3946;48.958;8.284;2023-04-16T02:59:28;100626.19;;;8.84;100.00
163;BME280;3946;48.958;8.284;2023-04-16T03:02:15;100622.91;;;8.81;100.00
163;BME280;3946;48.958;8.284;2023-04-16T03:05:00;100619.94;;;8.88;100.00
163;BME280;3946;48.958;8.284;2023-04-16T03:07:45;100629.75;;;8.82;100.00
163;BME280;3946;48.958;8.284;2023-04-16T03:10:30;100634.53;;;8.89;100.00
163;BME280;3946;48.958;8.284;2023-04-16T03:13:15;100620.78;;;8.89;100.00
163;BME280;3946;48.958;8.284;2023-04-16T03:16:01;100632.78;;;8.90;100.00
163;BME280;3946;48.958;8.284;2023-04-16T03:18:48;100634.41;;;8.75;100.00
163;BME280;3946;48.958;8.284;2023-04-16T03:21:34;100639.13;;;8.67;100.00
163;BME280;3946;48.958;8.284;2023-04-16T03:24:19;100635.16;;;8.77;100.00
163;BME280;3946;48.958;8.284;2023-04-16T03:27:06;100625.50;;;8.81;100.00
163;BME280;3946;48.958;8.284;2023-04-16T03:29:51;100641.47;;;8.71;100.00
163;BME280;3946;48.958;8.284;2023-04-16T03:32:39;100634.56;;;8.72;100.00
163;BME280;3946;48.958;8.284;2023-04-16T03:35:25;100637.06;;;8.73;100.00
163;BME280;3946;48.958;8.284;2023-04-16T03:38:10;100634.34;;;8.76;100.00
163;BME280;3946;48.958;8.284;2023-04-16T03:40:56;100643.00;;;8.75;100.00
163;BME280;3946;48.958;8.284;2023-04-16T03:43:42;100644.06;;;8.71;100.00
163;BME280;3946;48.958;8.284;2023-04-16T03:46:27;100644.00;;;8.73;100.00
163;BME280;3946;48.958;8.284;2023-04-16T03:49:12;100649.22;;;8.71;100.00
163;BME280;3946;48.958;8.284;2023-04-16T03:52:00;100651.88;;;8.70;100.00
163;BME280;3946;48.958;8.284;2023-04-16T03:54:45;100651.97;;;8.68;100.00
163;BME280;3946;48.958;8.284;2023-04-16T03:57:39;100652.94;;;8.66;100.00
163;BME280;3946;48.958;8.284;2023-04-16T04:00:28;100651.06;;;8.69;100.00
163;BME280;3946;48.958;8.284;2023-04-16T04:03:21;100656.28;;;8.68;100.00
163;BME280;3946;48.958;8.284;2023-04-16T04:06:07;100656.22;;;8.69;100.00
163;BME280;3946;48.958;8.284;2023-04-16T04:08:54;100650.78;;;8.91;100.00
163;BME280;3946;48.958;8.284;2023-04-16T04:11:39;100654.25;;;8.74;100.00
163;BME280;3946;48.958;8.284;2023-04-16T04:14:24;100659.63;;;8.70;100.00
163;BME280;3946;48.958;8.284;2023-04-16T04:17:09;100658.88;;;8.68;100.00
163;BME280;3946;48.958;8.284;2023-04-16T04:19:54;100664.81;;;8.70;100.00
163;BME280;3946;48.958;8.284;2023-04-16T04:22:39;100668.84;;;8.75;100.00
163;BME280;3946;48.958;8.284;2023-04-16T04:25:25;100666.97;;;8.77;100.00
163;BME280;3946;48.958;8.284;2023-04-16T04:28:10;100672.84;;;8.81;100.00
163;BME280;3946;48.958;8.284;2023-04-16T04:30:56;100668.50;;;8.82;100.00
163;BME280;3946;48.958;8.284;2023-04-16T04:33:41;100676.78;;;8.88;100.00
163;BME280;3946;48.958;8.284;2023-04-16T04:36:26;100676.25;;;8.82;100.00
163;BME280;3946;48.958;8.284;2023-04-16T04:39:11;100671.97;;;8.98;100.00
163;BME280;3946;48.958;8.284;2023-04-16T04:42:01;100670.00;;;9.03;100.00
163;BME280;3946;48.958;8.284;2023-04-16T04:44:46;100670.75;;;9.05;100.00
163;BME280;3946;48.958;8.284;2023-04-16T04:47:31;100681.19;;;8.86;100.00
163;BME280;3946;48.958;8.284;2023-04-16T04:50:17;100672.88;;;8.97;100.00
163;BME280;3946;48.958;8.284;2023-04-16T04:53:02;100675.75;;;9.08;100.00
163;BME280;3946;48.958;8.284;2023-04-16T04:55:52;100672.78;;;9.31;100.00
163;BME280;3946;48.958;8.284;2023-04-16T04:58:39;100669.56;;;9.10;100.00
163;BME280;3946;48.958;8.284;2023-04-16T05:01:24;100669.91;;;9.04;100.00
163;BME280;3946;48.958;8.284;2023-04-16T05:04:09;100671.69;;;9.20;100.00
163;BME280;3946;48.958;8.284;2023-04-16T05:06:54;100673.81;;;9.11;100.00
163;BME280;3946;48.958;8.284;2023-04-16T05:09:39;100672.66;;;9.01;100.00
163;BME280;3946;48.958;8.284;2023-04-16T05:12:24;100673.88;;;8.94;100.00
163;BME280;3946;48.958;8.284;2023-04-16T05:15:10;100672.66;;;9.01;100.00
163;BME280;3946;48.958;8.284;2023-04-16T05:17:55;100690.91;;;8.98;100.00
163;BME280;3946;48.958;8.284;2023-04-16T05:20:40;100680.25;;;9.04;100.00
163;BME280;3946;48.958;8.284;2023-04-16T05:23:25;100683.97;;;8.99;100.00
163;BME280;3946;48.958;8.284;2023-04-16T05:26:10;100695.97;;;9.00;100.00
163;BME280;3946;48.958;8.284;2023-04-16T05:28:55;100694.66;;;8.93;100.00
163;BME280;3946;48.958;8.284;2023-04-16T05:31:41;100698.50;;;9.01;100.00
163;BME280;3946;48.958;8.284;2023-04-16T05:34:26;100695.94;;;9.17;100.00
163;BME280;3946;48.958;8.284;2023-04-16T05:37:12;100696.81;;;9.00;100.00
163;BME280;3946;48.958;8.284;2023-04-16T05:39:56;100698.75;;;9.12;100.00
163;BME280;3946;48.958;8.284;2023-04-16T05:42:41;100707.47;;;8.94;100.00
163;BME280;3946;48.958;8.284;2023-04-16T05:45:26;100705.34;;;9.02;100.00
163;BME280;3946;48.958;8.284;2023-04-16T05:48:12;100716.66;;;9.00;100.00
163;BME280;3946;48.958;8.284;2023-04-16T05:50:57;100708.69;;;9.04;100.00
163;BME280;3946;48.958;8.284;2023-04-16T05:53:42;100718.47;;;8.98;100.00
163;BME280;3946;48.958;8.284;2023-04-16T05:56:27;100715.81;;;8.99;100.00
163;BME280;3946;48.958;8.284;2023-04-16T05:59:12;100718.47;;;8.98;100.00
163;BME280;3946;48.958;8.284;2023-04-16T06:01:57;100718.69;;;9.10;100.00
163;BME280;3946;48.958;8.284;2023-04-16T06:04:43;100725.25;;;9.00;100.00
163;BME280;3946;48.958;8.284;2023-04-16T06:07:29;100724.47;;;9.16;100.00
163;BME280;3946;48.958;8.284;2023-04-16T06:10:14;100727.16;;;9.30;100.00
163;BME280;3946;48.958;8.284;2023-04-16T06:12:59;100720.75;;;9.37;100.00
163;BME280;3946;48.958;8.284;2023-04-16T06:15:44;100729.47;;;9.19;100.00
163;BME280;3946;48.958;8.284;2023-04-16T06:18:29;100723.75;;;9.29;100.00
163;BME280;3946;48.958;8.284;2023-04-16T06:21:15;100730.47;;;9.16;100.00
163;BME280;3946;48.958;8.284;2023-04-16T06:24:00;100739.50;;;9.25;100.00
163;BME280;3946;48.958;8.284;2023-04-16T06:26:45;100742.88;;;9.58;100.00
163;BME280;3946;48.958;8.284;2023-04-16T06:29:30;100746.47;;;9.40;100.00
163;BME280;3946;48.958;8.284;2023-04-16T06:32:15;100740.56;;;9.54;100.00
163;BME280;3946;48.958;8.284;2023-04-16T06:35:01;100750.00;;;9.55;100.00
163;BME280;3946;48.958;8.284;2023-04-16T06:37:47;100744.91;;;9.53;100.00
163;BME280;3946;48.958;8.284;2023-04-16T06:40:32;100749.31;;;9.51;100.00
163;BME280;3946;48.958;8.284;2023-04-16T06:43:17;100754.19;;;9.57;100.00
163;BME280;3946;48.958;8.284;2023-04-16T06:46:02;100742.41;;;9.99;100.00
163;BME280;3946;48.958;8.284;2023-04-16T06:48:47;100745.25;;;9.94;100.00
163;BME280;3946;48.958;8.284;2023-04-16T06:51:32;100744.25;;;9.81;100.00
163;BME280;3946;48.958;8.284;2023-04-16T06:54:18;100751.19;;;9.96;100.00
163;BME280;3946;48.958;8.284;2023-04-16T06:57:03;100748.09;;;10.05;100.00
163;BME280;3946;48.958;8.284;2023-04-16T06:59:48;100748.09;;;10.05;100.00
163;BME280;3946;48.958;8.284;2023-04-16T07:02:33;100750.25;;;9.97;100.00
163;BME280;3946;48.958;8.284;2023-04-16T07:05:18;100752.84;;;10.13;100.00
163;BME280;3946;48.958;8.284;2023-04-16T07:08:03;100745.75;;;10.16;100.00
163;BME280;3946;48.958;8.284;2023-04-16T07:10:49;100748.81;;;10.07;100.00
163;BME280;3946;48.958;8.284;2023-04-16T07:13:36;100748.03;;;10.23;100.00
163;BME280;3946;48.958;8.284;2023-04-16T07:16:21;100744.16;;;10.30;100.00
163;BME280;3946;48.958;8.284;2023-04-16T07:19:06;100742.63;;;10.41;100.00
163;BME280;3946;48.958;8.284;2023-04-16T07:21:51;100742.13;;;10.50;100.00
163;BME280;3946;48.958;8.284;2023-04-16T07:24:36;100744.28;;;10.72;100.00
163;BME280;3946;48.958;8.284;2023-04-16T07:27:22;100754.66;;;10.72;100.00
163;BME280;3946;48.958;8.284;2023-04-16T07:30:07;100747.31;;;10.50;100.00
163;BME280;3946;48.958;8.284;2023-04-16T07:32:53;100757.16;;;10.74;100.00
163;BME280;3946;48.958;8.284;2023-04-16T07:35:38;100754.63;;;10.58;100.00
163;BME280;3946;48.958;8.284;2023-04-16T07:38:23;100755.19;;;10.63;100.00
163;BME280;3946;48.958;8.284;2023-04-16T07:41:08;100764.53;;;10.51;100.00
163;BME280;3946;48.958;8.284;2023-04-16T07:43:55;100764.91;;;10.60;100.00
163;BME280;3946;48.958;8.284;2023-04-16T07:46:40;100763.69;;;10.51;100.00
163;BME280;3946;48.958;8.284;2023-04-16T07:49:25;100760.50;;;10.46;100.00
163;BME280;3946;48.958;8.284;2023-04-16T07:52:10;100766.03;;;10.40;100.00
163;BME280;3946;48.958;8.284;2023-04-16T07:54:55;100773.22;;;10.50;100.00
163;BME280;3946;48.958;8.284;2023-04-16T07:57:40;100774.25;;;10.32;100.00
163;BME280;3946;48.958;8.284;2023-04-16T08:00:26;100771.50;;;10.20;99.92
163;BME280;3946;48.958;8.284;2023-04-16T08:03:11;100782.16;;;10.45;100.00
163;BME280;3946;48.958;8.284;2023-04-16T08:05:58;100782.22;;;10.43;100.00
163;BME280;3946;48.958;8.284;2023-04-16T08:08:44;100786.34;;;10.32;100.00
163;BME280;3946;48.958;8.284;2023-04-16T08:11:29;100791.66;;;10.60;100.00
163;BME280;3946;48.958;8.284;2023-04-16T08:14:14;100788.56;;;10.69;98.63
163;BME280;3946;48.958;8.284;2023-04-16T08:17:00;100785.47;;;10.63;99.83
163;BME280;3946;48.958;8.284;2023-04-16T08:19:45;100793.19;;;10.78;100.00
163;BME280;3946;48.958;8.284;2023-04-16T08:22:31;100779.53;;;11.05;96.87
163;BME280;3946;48.958;8.284;2023-04-16T08:25:16;100778.47;;;11.37;95.99
163;BME280;3946;48.958;8.284;2023-04-16T08:28:01;100789.50;;;11.41;96.93
163;BME280;3946;48.958;8.284;2023-04-16T08:30:46;100795.69;;;11.38;96.64
163;BME280;3946;48.958;8.284;2023-04-16T08:33:32;100805.53;;;11.19;96.75
163;BME280;3946;48.958;8.284;2023-04-16T08:36:17;100800.19;;;11.36;94.39
163;BME280;3946;48.958;8.284;2023-04-16T08:39:02;100802.47;;;11.41;91.21
163;BME280;3946;48.958;8.284;2023-04-16T08:41:47;100809.50;;;11.25;93.71
163;BME280;3946;48.958;8.284;2023-04-16T08:44:33;100807.81;;;11.23;92.49
163;BME280;3946;48.958;8.284;2023-04-16T08:47:18;100810.50;;;11.22;93.63
163;BME280;3946;48.958;8.284;2023-04-16T08:50:08;100805.16;;;11.39;92.75
163;BME280;3946;48.958;8.284;2023-04-16T08:52:55;100800.63;;;11.57;89.58
163;BME280;3946;48.958;8.284;2023-04-16T08:55:42;100781.09;;;11.51;87.06
163;BME280;3946;48.958;8.284;2023-04-16T08:58:31;100806.19;;;11.51;87.65
163;BME280;3946;48.958;8.284;2023-04-16T09:01:18;100803.59;;;11.65;87.84
163;BME280;3946;48.958;8.284;2023-04-16T09:04:03;100822.22;;;11.57;89.53
163;BME280;3946;48.958;8.284;2023-04-16T09:06:50;100814.94;;;11.78;88.78
163;BME280;3946;48.958;8.284;2023-04-16T09:09:36;100810.06;;;11.44;88.44
163;BME280;3946;48.958;8.284;2023-04-16T09:12:22;100820.47;;;11.44;88.54
163;BME280;3946;48.958;8.284;2023-04-16T09:15:08;100817.84;;;11.30;88.22
163;BME280;3946;48.958;8.284;2023-04-16T09:17:54;100824.69;;;11.16;88.87
163;BME280;3946;48.958;8.284;2023-04-16T09:20:39;100829.13;;;11.14;90.20
163;BME280;3946;48.958;8.284;2023-04-16T09:23:25;100833.22;;;10.88;90.57
163;BME280;3946;48.958;8.284;2023-04-16T09:26:10;100821.88;;;11.05;89.20
163;BME280;3946;48.958;8.284;2023-04-16T09:28:55;100830.03;;;10.99;88.91
163;BME280;3946;48.958;8.284;2023-04-16T09:31:40;100832.81;;;11.10;90.06
163;BME280;3946;48.958;8.284;2023-04-16T09:34:52;100830.63;;;10.88;89.07
163;BME280;3946;48.958;8.284;2023-04-16T09:37:38;100833.50;;;10.84;89.87
163;BME280;3946;48.958;8.284;2023-04-16T09:40:25;100830.94;;;10.98;89.35
163;BME280;3946;48.958;8.284;2023-04-16T09:43:13;100833.13;;;10.90;89.25
163;BME280;3946;48.958;8.284;2023-04-16T09:45:58;100830.09;;;10.98;88.93
163;BME280;3946;48.958;8.284;2023-04-16T09:48:43;100833.06;;;11.06;88.73
163;BME280;3946;48.958;8.284;2023-04-16T09:51:31;100832.53;;;11.01;87.40
163;BME280;3946;48.958;8.284;2023-04-16T09:54:20;100836.06;;;11.14;88.63
163;BME280;3946;48.958;8.284;2023-04-16T09:57:06;100837.75;;;11.15;88.13
163;BME280;3946;48.958;8.284;2023-04-16T09:59:51;100849.06;;;11.28;88.31
163;BME280;3946;48.958;8.284;2023-04-16T10:02:38;100841.78;;;11.35;87.12
163;BME280;3946;48.958;8.284;2023-04-16T10:05:24;100840.38;;;11.29;86.77
163;BME280;3946;48.958;8.284;2023-04-16T10:08:10;100843.22;;;11.39;87.61
163;BME280;3946;48.958;8.284;2023-04-16T10:10:56;100839.13;;;11.20;86.95
163;BME280;3946;48.958;8.284;2023-04-16T10:13:43;100840.56;;;11.40;87.65
163;BME280;3946;48.958;8.284;2023-04-16T10:16:28;100845.56;;;11.43;88.08
163;BME280;3946;48.958;8.284;2023-04-16T10:19:13;100850.66;;;11.45;88.38
163;BME280;3946;48.958;8.284;2023-04-16T10:21:59;100853.41;;;11.28;86.89
163;BME280;3946;48.958;8.284;2023-04-16T10:24:44;100859.63;;;11.39;87.76
163;BME280;3946;48.958;8.284;2023-04-16T10:27:30;100857.38;;;11.63;87.02
163;BME280;3946;48.958;8.284;2023-04-16T10:30:17;100854.66;;;11.50;86.57
163;BME280;3946;48.958;8.284;2023-04-16T10:33:03;100865.06;;;11.50;86.62
163;BME280;3946;48.958;8.284;2023-04-16T10:35:49;100865.59;;;11.55;87.74
163;BME280;3946;48.958;8.284;2023-04-16T10:38:34;100857.94;;;11.68;86.24
163;BME280;3946;48.958;8.284;2023-04-16T10:41:21;100860.41;;;11.70;85.84
163;BME280;3946;48.958;8.284;2023-04-16T10:44:06;100861.06;;;11.73;86.01
163;BME280;3946;48.958;8.284;2023-04-16T10:46:54;100861.25;;;11.56;85.38
163;BME280;3946;48.958;8.284;2023-04-16T10:49:39;100869.94;;;11.85;85.19
163;BME280;3946;48.958;8.284;2023-04-16T10:52:24;100857.41;;;11.77;85.18
163;BME280;3946;48.958;8.284;2023-04-16T10:55:14;100866.75;;;11.80;85.75
163;BME280;3946;48.958;8.284;2023-04-16T10:58:00;100862.06;;;11.71;85.93
163;BME280;3946;48.958;8.284;2023-04-16T11:00:48;100860.41;;;11.55;85.48
163;BME280;3946;48.958;8.284;2023-04-16T11:03:35;100868.84;;;11.45;85.47
163;BME280;3946;48.958;8.284;2023-04-16T11:06:22;100865.25;;;11.62;85.59
163;BME280;3946;48.958;8.284;2023-04-16T11:09:11;100870.31;;;11.35;86.01
163;BME280;3946;48.958;8.284;2023-04-16T11:12:16;100868.28;;;11.54;86.11
163;BME280;3946;48.958;8.284;2023-04-16T11:15:02;100870.69;;;11.57;86.16
163;BME280;3946;48.958;8.284;2023-04-16T11:17:48;100868.94;;;11.57;85.94
163;BME280;3946;48.958;8.284;2023-04-16T11:20:40;100878.28;;;11.46;86.65
163;BME280;3946;48.958;8.284;2023-04-16T11:23:24;100879.22;;;11.45;86.72
163;BME280;3946;48.958;8.284;2023-04-16T11:26:18;100882.28;;;11.51;88.08
163;BME280;3946;48.958;8.284;2023-04-16T11:29:03;100882.97;;;11.25;90.62
163;BME280;3946;48.958;8.284;2023-04-16T11:31:57;100884.75;;;11.09;91.98
163;BME280;3946;48.958;8.284;2023-04-16T11:34:42;100883.41;;;11.17;93.66
163;BME280;3946;48.958;8.284;2023-04-16T11:37:33;100885.22;;;11.31;93.81
163;BME280;3946;48.958;8.284;2023-04-16T11:40:18;100887.53;;;11.06;94.94
163;BME280;3946;48.958;8.284;2023-04-16T11:43:11;100888.41;;;10.91;96.70
163;BME280;3946;48.958;8.284;2023-04-16T11:45:57;100891.28;;;10.86;97.26
163;BME280;3946;48.958;8.284;2023-04-16T11:48:46;100889.28;;;11.05;98.38
163;BME280;3946;48.958;8.284;2023-04-16T11:51:31;100894.50;;;10.90;98.40
163;BME280;3946;48.958;8.284;2023-04-16T11:54:21;100901.44;;;10.89;99.30
163;BME280;3946;48.958;8.284;2023-04-16T11:57:06;100896.13;;;10.76;99.95
163;BME280;3946;48.958;8.284;2023-04-16T11:59:52;100898.78;;;10.91;99.06
163;BME280;3946;48.958;8.284;2023-04-16T12:02:37;100901.78;;;10.99;99.27
163;BME280;3946;48.958;8.284;2023-04-16T12:05:26;100899.41;;;11.10;100.00
163;BME280;3946;48.958;8.284;2023-04-16T12:08:12;100899.63;;;11.21;99.84
163;BME280;3946;48.958;8.284;2023-04-16T12:10:58;100902.53;;;11.31;99.01
163;BME280;3946;48.958;8.284;2023-04-16T12:16:43;100903.31;;;11.47;98.60
163;BME280;3946;48.958;8.284;2023-04-16T12:19:28;100906.38;;;11.23;99.57
163;BME280;3946;48.958;8.284;2023-04-16T12:22:12;100909.28;;;11.19;100.00
163;BME280;3946;48.958;8.284;2023-04-16T12:24:59;100908.75;;;10.82;100.00
163;BME280;3946;48.958;8.284;2023-04-16T12:27:47;100901.38;;;10.75;100.00
163;BME280;3946;48.958;8.284;2023-04-16T12:30:47;100911.59;;;10.78;100.00
163;BME280;3946;48.958;8.284;2023-04-16T12:33:33;100918.47;;;10.63;100.00
163;BME280;3946;48.958;8.284;2023-04-16T12:36:18;100906.16;;;10.82;100.00
163;BME280;3946;48.958;8.284;2023-04-16T12:39:04;100910.63;;;11.10;100.00
163;BME280;3946;48.958;8.284;2023-04-16T12:41:49;100909.50;;;10.84;100.00
163;BME280;3946;48.958;8.284;2023-04-16T12:44:34;100910.44;;;10.68;100.00
163;BME280;3946;48.958;8.284;2023-04-16T12:47:20;100915.84;;;10.95;100.00
163;BME280;3946;48.958;8.284;2023-04-16T12:50:06;100911.41;;;10.81;100.00
163;BME280;3946;48.958;8.284;2023-04-16T12:52:51;100908.44;;;11.18;100.00
163;BME280;3946;48.958;8.284;2023-04-16T12:55:36;100912.16;;;11.29;100.00
163;BME280;3946;48.958;8.284;2023-04-16T12:58:21;100905.03;;;11.32;100.00
163;BME280;3946;48.958;8.284;2023-04-16T13:01:06;100910.50;;;11.28;100.00
163;BME280;3946;48.958;8.284;2023-04-16T13:03:52;100910.41;;;11.29;100.00
163;BME280;3946;48.958;8.284;2023-04-16T13:06:37;100914.16;;;10.94;100.00
163;BME280;3946;48.958;8.284;2023-04-16T13:09:22;100917.19;;;11.02;100.00
163;BME280;3946;48.958;8.284;2023-04-16T13:12:07;100902.97;;;10.77;100.00
163;BME280;3946;48.958;8.284;2023-04-16T13:14:52;100914.00;;;10.81;100.00
163;BME280;3946;48.958;8.284;2023-04-16T13:17:37;100912.00;;;10.86;100.00
163;BME280;3946;48.958;8.284;2023-04-16T13:20:24;100918.94;;;10.85;100.00
163;BME280;3946;48.958;8.284;2023-04-16T13:23:08;100914.19;;;10.78;100.00
163;BME280;3946;48.958;8.284;2023-04-16T13:25:53;100916.00;;;10.76;100.00
163;BME280;3946;48.958;8.284;2023-04-16T13:28:38;100912.09;;;10.69;100.00
163;BME280;3946;48.958;8.284;2023-04-16T13:31:24;100926.81;;;10.68;100.00
163;BME280;3946;48.958;8.284;2023-04-16T13:34:09;100914.63;;;10.70;100.00
163;BME280;3946;48.958;8.284;2023-04-16T13:36:55;100916.69;;;10.79;100.00
163;BME280;3946;48.958;8.284;2023-04-16T13:39:40;100914.63;;;10.70;100.00
163;BME280;3946;48.958;8.284;2023-04-16T13:42:25;100912.25;;;10.81;100.00
163;BME280;3946;48.958;8.284;2023-04-16T13:45:11;100921.38;;;10.73;100.00
163;BME280;3946;48.958;8.284;2023-04-16T13:47:56;100918.44;;;10.95;100.00
163;BME280;3946;48.958;8.284;2023-04-16T13:50:41;100917.59;;;10.94;100.00
163;BME280;3946;48.958;8.284;2023-04-16T13:53:28;100915.31;;;10.88;100.00
163;BME280;3946;48.958;8.284;2023-04-16T13:56:13;100908.50;;;10.87;100.00
163;BME280;3946;48.958;8.284;2023-04-16T13:58:58;100909.34;;;10.88;100.00
163;BME280;3946;48.958;8.284;2023-04-16T14:01:43;100910.72;;;10.93;100.00
163;BME280;3946;48.958;8.284;2023-04-16T14:04:28;100908.97;;;10.94;100.00
163;BME280;3946;48.958;8.284;2023-04-16T14:07:14;100912.94;;;10.85;100.00
163;BME280;3946;48.958;8.284;2023-04-16T14:10:01;100909.06;;;10.92;100.00
163;BME280;3946;48.958;8.284;2023-04-16T14:12:46;100912.19;;;10.83;100.00
163;BME280;3946;48.958;8.284;2023-04-16T14:15:30;100913.00;;;10.99;100.00
163;BME280;3946;48.958;8.284;2023-04-16T14:18:15;100909.69;;;11.11;100.00
163;BME280;3946;48.958;8.284;2023-04-16T14:21:00;100920.53;;;11.04;100.00
163;BME280;3946;48.958;8.284;2023-04-16T14:23:45;100909.44;;;11.16;100.00
163;BME280;3946;48.958;8.284;2023-04-16T14:26:32;100913.63;;;11.18;100.00
163;BME280;3946;48.958;8.284;2023-04-16T14:29:17;100908.59;;;11.15;100.00
163;BME280;3946;48.958;8.284;2023-04-16T14:32:02;100913.63;;;11.18;100.00
163;BME280;3946;48.958;8.284;2023-04-16T14:34:47;100919.00;;;11.00;100.00
163;BME280;3946;48.958;8.284;2023-04-16T14:37:32;100915.88;;;11.09;100.00
163;BME280;3946;48.958;8.284;2023-04-16T14:40:18;100915.31;;;10.88;100.00
163;BME280;3946;48.958;8.284;2023-04-16T14:43:04;100921.53;;;11.01;100.00
163;BME280;3946;48.958;8.284;2023-04-16T14:45:49;100923.84;;;10.90;100.00
163;BME280;3946;48.958;8.284;2023-04-16T14:48:35;100916.16;;;10.88;100.00
163;BME280;3946;48.958;8.284;2023-04-16T14:51:20;100921.47;;;10.87;100.00
163;BME280;3946;48.958;8.284;2023-04-16T14:54:05;100913.41;;;10.92;100.00
163;BME280;3946;48.958;8.284;2023-04-16T14:56:50;100924.03;;;11.03;100.00
163;BME280;3946;48.958;8.284;2023-04-16T14:59:36;100917.09;;;11.33;100.00
163;BME280;3946;48.958;8.284;2023-04-16T15:02:21;100913.16;;;11.26;100.00
163;BME280;3946;48.958;8.284;2023-04-16T15:05:06;100919.53;;;11.20;100.00